Butts AAF (Fort Carson) Air Field
KFCS : now visible

Airfield :











YOU CAN JOIN US ON...

 
LOGIN :

Register | Disclaimer

   EN    FR    IT 

 









Legend :    VFR   Marginal VFR   IFR   Intensive IFR   Very Intensive IFR
Visi :
Ceiling :
>= 8 km
>= 3000ft
5 to 8 km
1000 to 3000 ft
1500m to 5 km
500 to 1000 ft
800 to 1500m
200 to 500 ft
< 800m
< 200 ft
Symbols :   Thunderstorms  Fog  Heavy snow  Heavy precipitations  Wind > 20 kt







- Airport Elevation : 5838 ft


KFCS - Butts AAF (Fort Carson) Air Field

CURRENT METAR :
  • 210358Z AUTO 22015KT 10SM CLR 22/M07 A2990 RMK AO2 SLP062 T02161071 $

EXPIRED METARs :
  • 210258Z AUTO 20014KT 10SM CLR 22/M05 A2988 RMK AO2 SLP061 T02201050 52014 $
  • 210158Z AUTO 21014G20KT 10SM CLR 23/M06 A2986 RMK AO2 SLP059 T02341056 $

TAF TAF KFCS
Valid from the 20 at 21:00 until the 22 at 03:00 UTC


202101Z 2021/2203 21020G30KT 9999 SKC 520009 QNH2980INS
TEMPO 2021/2023 21025G35KT
BECMG 2102/2103 21012KT 9999 SKC QNH2991INS
BECMG 2104/2105 VRB06KT 9999 SCT120 QNH2995INS
BECMG 2118/2119 22015G25KT 9999 FEW150 520009 QNH2993INS TX30/2021Z TN12/2113Z
No reported NOTAMs for that airfield.



MET'MAP, your aeronautical weather chart ! - Copyright ORBIFLY December 2007 - Disclaimer

ORBIFLY MET'MAP TEAM :

Programming & Development : Alexandra Zaïnal
Concept & Development : Baudouin d'Aumeries
Co-Development & Prog : Marc-Olivier Méhu
Technical & hardware support : Manuel Goepfert

Contact : metmap@orbifly.com




SOURCES & CREDITS :

   NOAA       Earth
Advisory